createdAt,value
2019-02-11T07:21:02.280Z,56.70
2019-02-11T07:23:31.988Z,59.00
2019-02-11T07:26:01.694Z,60.07
2019-02-11T07:28:31.259Z,58.57
2019-02-11T07:31:01.573Z,64.43
2019-02-11T07:33:33.791Z,58.33
2019-02-11T07:36:03.277Z,61.60
2019-02-11T07:38:32.806Z,59.40
2019-02-11T07:41:02.407Z,59.53
2019-02-11T07:43:40.289Z,57.80
2019-02-11T07:46:17.606Z,58.80
2019-02-11T07:48:47.192Z,55.67
2019-02-11T07:51:16.889Z,60.20
2019-02-11T07:53:46.712Z,73.00
2019-02-11T07:56:16.420Z,68.73
2019-02-11T07:58:46.127Z,76.70
2019-02-11T08:01:15.629Z,68.33
2019-02-11T08:03:45.327Z,72.13
2019-02-11T08:06:15.045Z,57.77
2019-02-11T08:08:44.885Z,58.33
2019-02-11T08:11:14.579Z,62.50
2019-02-11T08:13:44.051Z,60.80
2019-02-11T08:16:13.680Z,59.00
2019-02-11T08:18:43.449Z,60.30
2019-02-11T08:21:13.211Z,62.50
2019-02-11T08:23:42.807Z,59.57
2019-02-11T08:26:12.530Z,62.27
2019-02-11T08:28:42.386Z,62.87
2019-02-11T08:31:12.354Z,59.77
2019-02-11T08:33:41.947Z,58.00
2019-02-11T08:36:11.729Z,58.80
2019-02-11T08:38:41.191Z,55.83
2019-02-11T08:41:10.882Z,61.50
2019-02-11T08:43:40.526Z,61.07
2019-02-11T08:46:10.395Z,61.90
2019-02-11T08:48:39.988Z,61.20
2019-02-11T08:51:09.413Z,63.67
2019-02-11T08:53:39.187Z,60.67
2019-02-11T08:56:08.664Z,61.60
2019-02-11T08:58:38.331Z,56.33
2019-02-11T09:01:08.247Z,60.33
2019-02-11T09:03:38.162Z,60.20
2019-02-11T09:06:07.869Z,55.87
2019-02-11T09:08:37.505Z,56.60
2019-02-11T09:11:07.139Z,56.80
2019-02-11T09:13:36.954Z,55.60
2019-02-11T09:16:06.922Z,59.40
2019-02-11T09:18:36.577Z,79.87
2019-02-11T09:21:06.258Z,77.03
2019-02-11T09:23:35.659Z,85.60
2019-02-11T09:26:05.492Z,61.33
2019-02-11T09:28:34.975Z,63.10
2019-02-11T09:31:04.901Z,56.50
2019-02-11T09:33:34.457Z,84.40
2019-02-11T09:36:03.883Z,83.73
2019-02-11T09:38:33.642Z,78.70
2019-02-11T09:41:03.321Z,60.50
2019-02-11T09:43:32.727Z,60.83
2019-02-11T09:46:03.978Z,67.03
2019-02-11T09:48:33.693Z,55.10
2019-02-11T09:51:04.507Z,57.27
2019-02-11T09:53:34.171Z,58.40
2019-02-11T09:56:04.032Z,58.70
2019-02-11T09:58:33.848Z,56.07
2019-02-11T10:01:03.827Z,55.47
2019-02-11T10:03:33.211Z,53.60
2019-02-11T10:06:02.942Z,52.50
2019-02-11T10:08:32.590Z,56.07
2019-02-11T10:11:02.723Z,54.20
2019-02-11T10:13:32.349Z,53.83
2019-02-11T10:16:01.812Z,56.03
2019-02-11T10:18:31.630Z,91.47
2019-02-11T10:21:03.814Z,122.23
2019-02-11T10:23:33.452Z,57.43
2019-02-11T10:26:03.218Z,51.67
2019-02-11T10:28:33.003Z,51.60
2019-02-11T10:31:02.767Z,48.47
2019-02-11T10:33:32.167Z,49.27
2019-02-11T10:36:01.894Z,50.47
2019-02-11T10:38:36.602Z,47.67
2019-02-11T10:41:02.956Z,51.50
2019-02-11T10:43:32.695Z,53.00
2019-02-11T10:46:02.296Z,52.00
2019-02-11T10:48:31.807Z,54.87
2019-02-11T10:51:01.373Z,55.53
2019-02-11T10:53:30.861Z,53.83
2019-02-11T10:56:00.703Z,53.10
2019-02-11T10:58:30.365Z,48.00
2019-02-11T11:00:59.776Z,45.90
2019-02-11T11:03:29.559Z,50.80
2019-02-11T11:05:59.432Z,46.43
2019-02-11T11:08:29.031Z,47.00
2019-02-11T11:10:58.737Z,42.37
2019-02-11T11:13:28.572Z,43.13
2019-02-11T11:15:58.271Z,42.63
2019-02-11T11:18:27.888Z,41.67
2019-02-11T11:20:57.367Z,40.90
2019-02-11T11:23:26.888Z,38.97
2019-02-11T11:25:56.499Z,41.93
2019-02-11T11:28:26.216Z,40.20
2019-02-11T11:30:55.726Z,42.77
2019-02-11T11:33:25.144Z,42.43
2019-02-11T11:35:54.575Z,42.30
2019-02-11T11:38:24.063Z,41.83
2019-02-11T11:40:53.811Z,41.30
2019-02-11T11:43:23.430Z,46.80
2019-02-11T11:45:52.831Z,42.47
2019-02-11T11:48:22.369Z,43.87
2019-02-11T11:50:52.146Z,44.00
2019-02-11T11:53:21.541Z,48.03
2019-02-11T11:55:51.269Z,48.23
2019-02-11T11:58:20.854Z,44.00
2019-02-11T12:00:50.508Z,47.97
2019-02-11T12:03:20.429Z,47.57
2019-02-11T12:05:50.325Z,48.20
2019-02-11T12:08:19.709Z,47.10
2019-02-11T12:10:49.421Z,50.50
2019-02-11T12:13:23.045Z,50.63
2019-02-11T12:15:50.788Z,57.97
2019-02-11T12:18:20.555Z,52.57
2019-02-11T12:20:50.181Z,51.40
2019-02-11T12:23:20.112Z,53.50
2019-02-11T12:25:49.840Z,51.17
2019-02-11T12:28:19.215Z,54.23
2019-02-11T12:30:53.341Z,55.33
2019-02-11T12:33:20.545Z,56.83
2019-02-11T12:35:50.407Z,55.53
2019-02-11T12:38:20.203Z,55.97
2019-02-11T12:40:49.745Z,57.30
2019-02-11T12:43:19.316Z,54.77
2019-02-11T12:45:49.109Z,54.53
2019-02-11T12:48:18.929Z,58.13
2019-02-11T12:50:48.415Z,58.13
2019-02-11T12:53:18.083Z,52.27
2019-02-11T12:55:47.507Z,48.97
2019-02-11T12:58:17.379Z,47.37
2019-02-11T13:00:47.085Z,45.17
2019-02-11T13:03:16.682Z,44.63
2019-02-11T13:05:46.755Z,45.17
2019-02-11T13:08:17.237Z,47.47
2019-02-11T13:10:46.700Z,46.70
2019-02-11T13:13:16.256Z,42.50
2019-02-11T13:16:00.211Z,48.97
2019-02-11T13:18:17.297Z,50.27
2019-02-11T13:20:46.899Z,83.00
2019-02-11T13:23:16.584Z,54.67
2019-02-11T13:25:46.249Z,73.33
2019-02-11T13:28:15.643Z,50.97
2019-02-11T13:30:45.060Z,66.87
2019-02-11T13:33:14.998Z,49.83
2019-02-11T13:35:44.877Z,46.00
2019-02-11T13:38:14.441Z,51.20
2019-02-11T13:40:43.945Z,51.00
2019-02-11T13:43:13.736Z,51.13
2019-02-11T13:45:43.567Z,38.80
2019-02-11T13:48:13.309Z,37.93
2019-02-11T13:50:43.313Z,40.83
2019-02-11T13:53:13.244Z,42.43
2019-02-11T13:55:44.144Z,41.10
2019-02-11T13:58:13.895Z,38.27
2019-02-11T14:00:49.439Z,48.57
2019-02-11T14:03:20.022Z,50.93
2019-02-11T14:05:48.408Z,45.80
2019-02-11T14:08:18.235Z,40.33
2019-02-11T14:10:47.724Z,42.73
2019-02-11T14:13:17.735Z,44.37
2019-02-11T14:15:47.539Z,43.67
2019-02-11T14:18:17.215Z,42.27
2019-02-11T14:20:49.989Z,42.50
2019-02-11T14:23:18.616Z,53.87
2019-02-11T14:25:48.078Z,112.97
2019-02-11T14:28:17.973Z,61.63
2019-02-11T14:30:47.753Z,46.23
2019-02-11T14:33:17.453Z,42.70
2019-02-11T14:35:47.179Z,75.43
2019-02-11T14:38:16.992Z,59.93
2019-02-11T14:40:46.638Z,44.53
2019-02-11T14:43:16.144Z,44.80
2019-02-11T14:45:46.004Z,44.90
2019-02-11T14:48:26.870Z,47.37
2019-02-11T14:50:47.027Z,48.33
2019-02-11T14:53:16.532Z,45.93
2019-02-11T14:55:46.270Z,46.43
2019-02-11T14:58:15.873Z,44.90
2019-02-11T15:00:45.290Z,42.73
2019-02-11T15:03:15.008Z,40.63
2019-02-11T15:05:44.560Z,61.33
2019-02-11T15:08:13.944Z,73.97
2019-02-11T15:10:43.817Z,60.87
2019-02-11T15:13:13.535Z,54.97
2019-02-11T15:15:43.319Z,51.83
2019-02-11T15:18:12.745Z,57.53
2019-02-11T15:20:42.512Z,76.27
2019-02-11T15:23:12.317Z,61.73
2019-02-11T15:25:42.081Z,68.97
2019-02-11T15:28:11.685Z,56.43
2019-02-11T15:30:41.421Z,55.17
2019-02-11T15:33:10.917Z,56.67
2019-02-11T15:35:40.511Z,58.47
2019-02-11T15:38:12.192Z,58.77
2019-02-11T15:40:41.858Z,51.33
2019-02-11T15:43:11.631Z,51.57
2019-02-11T15:45:41.472Z,52.90
2019-02-11T15:48:11.146Z,52.13
2019-02-11T15:50:40.857Z,48.67
2019-02-11T15:53:10.450Z,58.83
2019-02-11T15:55:40.084Z,73.00
2019-02-11T15:58:09.749Z,76.43
2019-02-11T16:00:41.901Z,250.13
2019-02-11T16:03:11.303Z,89.90
2019-02-11T16:05:49.206Z,117.07
2019-02-11T16:08:12.457Z,329.47
2019-02-11T16:10:41.960Z,225.13
2019-02-11T16:13:11.555Z,343.30
2019-02-11T16:15:40.959Z,386.20
2019-02-11T16:18:10.465Z,122.70
2019-02-11T16:20:39.966Z,279.97
2019-02-11T16:23:09.678Z,214.83
2019-02-11T16:25:39.338Z,97.27
2019-02-11T16:28:09.150Z,177.50
2019-02-11T16:30:38.909Z,78.37
2019-02-11T16:33:08.300Z,83.63
2019-02-11T16:35:37.708Z,89.63
2019-02-11T16:38:07.519Z,83.83
2019-02-11T16:40:36.932Z,71.90
2019-02-11T16:43:06.634Z,62.83
2019-02-11T16:45:36.199Z,74.17
2019-02-11T16:48:05.754Z,81.97
2019-02-11T16:50:38.148Z,88.83
2019-02-11T16:53:10.455Z,133.70
2019-02-11T16:55:40.324Z,86.97
2019-02-11T16:58:09.970Z,63.47
2019-02-11T17:00:39.393Z,63.47
2019-02-11T17:03:09.066Z,66.77
2019-02-11T17:05:38.826Z,70.70
2019-02-11T17:08:08.430Z,75.93
2019-02-11T17:10:38.192Z,73.70
2019-02-11T17:13:07.749Z,78.03
2019-02-11T17:15:37.721Z,77.10
2019-02-11T17:18:07.504Z,59.53
2019-02-11T17:20:37.011Z,58.83
2019-02-11T17:23:07.200Z,56.43
2019-02-11T17:25:36.915Z,69.80
2019-02-11T17:28:06.768Z,69.37
2019-02-11T17:30:36.361Z,70.10
2019-02-11T17:33:05.915Z,76.77
2019-02-11T17:35:35.350Z,89.23
2019-02-11T17:38:05.139Z,93.70
2019-02-11T17:40:34.655Z,79.67
2019-02-11T17:43:04.279Z,93.23
2019-02-11T17:45:34.151Z,77.57
2019-02-11T17:48:04.044Z,60.73
2019-02-11T17:50:33.522Z,53.50
2019-02-11T17:53:04.539Z,55.70
2019-02-11T17:55:34.227Z,60.40
2019-02-11T17:58:03.954Z,103.07
2019-02-11T18:00:38.362Z,111.90
2019-02-11T18:03:08.079Z,63.70
2019-02-11T18:05:37.889Z,59.87
2019-02-11T18:08:07.580Z,69.33
2019-02-11T18:10:37.429Z,61.20
2019-02-11T18:13:07.266Z,65.93
2019-02-11T18:15:37.068Z,133.40
2019-02-11T18:18:06.479Z,118.10
2019-02-11T18:20:36.253Z,118.80
2019-02-11T18:23:05.861Z,131.90
2019-02-11T18:25:36.365Z,129.17
2019-02-11T18:28:06.381Z,93.67
2019-02-11T18:30:36.127Z,95.17
2019-02-11T18:33:05.745Z,66.13
2019-02-11T18:35:35.653Z,60.97
2019-02-11T18:38:05.388Z,81.03
2019-02-11T18:40:35.054Z,80.57
2019-02-11T18:43:04.455Z,75.17
2019-02-11T18:45:34.138Z,60.23
2019-02-11T18:48:06.056Z,55.33
2019-02-11T18:50:35.924Z,58.37
2019-02-11T18:53:05.631Z,55.30
2019-02-11T18:55:35.924Z,62.47
2019-02-11T18:58:05.405Z,63.23
2019-02-11T19:00:35.087Z,66.67
2019-02-11T19:03:05.177Z,62.73
2019-02-11T19:05:34.832Z,58.03
2019-02-11T19:08:04.333Z,57.63
2019-02-11T19:10:34.108Z,59.30
2019-02-11T19:13:03.761Z,60.30
2019-02-11T19:15:33.483Z,68.17
2019-02-11T19:18:03.243Z,82.67
2019-02-11T19:20:32.677Z,77.70
2019-02-11T19:23:02.501Z,77.63
2019-02-11T19:25:34.511Z,69.37
2019-02-11T19:28:04.039Z,66.63
2019-02-11T19:30:33.807Z,55.90
2019-02-11T19:33:03.559Z,56.03
2019-02-11T19:35:34.422Z,56.37
2019-02-11T19:38:04.519Z,68.67
2019-02-11T19:40:36.712Z,94.93
2019-02-11T19:43:06.256Z,63.27
2019-02-11T19:45:38.194Z,69.03
2019-02-11T19:48:07.792Z,84.37
2019-02-11T19:50:37.342Z,75.53
2019-02-11T19:53:07.061Z,72.87
2019-02-11T19:55:36.734Z,71.83
2019-02-11T19:58:06.245Z,67.97
2019-02-11T20:00:35.726Z,79.20
2019-02-11T20:03:05.921Z,87.60
2019-02-11T20:05:35.682Z,87.33
2019-02-11T20:08:05.487Z,55.90
2019-02-11T20:10:35.221Z,50.07
2019-02-11T20:13:04.907Z,46.03
2019-02-11T20:15:34.650Z,71.27
2019-02-11T20:18:04.492Z,62.23
2019-02-11T20:20:34.070Z,70.07
2019-02-11T20:23:03.657Z,66.80
2019-02-11T20:25:33.400Z,63.73
2019-02-11T20:28:03.221Z,62.37
2019-02-11T20:30:33.084Z,62.97
2019-02-11T20:33:04.440Z,62.50
2019-02-11T20:35:33.673Z,63.37
2019-02-11T20:38:03.184Z,63.80
2019-02-11T20:40:32.871Z,63.13
2019-02-11T20:43:02.456Z,68.40
2019-02-11T20:45:31.939Z,73.37
2019-02-11T20:48:01.448Z,82.07
2019-02-11T20:50:31.150Z,85.53
2019-02-11T20:53:00.764Z,86.57
2019-02-11T20:55:30.386Z,87.53
2019-02-11T20:58:00.343Z,97.77
2019-02-11T21:00:30.229Z,107.10
2019-02-11T21:03:07.913Z,104.93
2019-02-11T21:05:31.475Z,100.80
2019-02-11T21:08:01.175Z,98.87
2019-02-11T21:10:31.198Z,102.73
2019-02-11T21:13:01.002Z,100.97
2019-02-11T21:15:30.731Z,102.03
2019-02-11T21:18:00.363Z,99.07
2019-02-11T21:20:32.388Z,107.00
2019-02-11T21:23:01.936Z,103.13
2019-02-11T21:25:31.435Z,103.93
2019-02-11T21:28:01.291Z,96.53
2019-02-11T21:30:30.950Z,99.27
2019-02-11T21:33:00.448Z,100.53
2019-02-11T21:35:30.256Z,95.33
2019-02-11T21:37:59.712Z,93.80
2019-02-11T21:40:29.501Z,86.40
2019-02-11T21:42:59.283Z,87.27
2019-02-11T21:45:29.055Z,94.07
2019-02-11T21:47:58.640Z,94.43
2019-02-11T21:50:28.350Z,89.00
2019-02-11T21:52:57.908Z,79.93
2019-02-11T21:55:27.643Z,83.27
2019-02-11T21:57:57.206Z,77.30
2019-02-11T22:00:26.734Z,76.27
2019-02-11T22:02:56.292Z,73.60
2019-02-11T22:05:25.911Z,80.27
2019-02-11T22:07:55.800Z,72.23
2019-02-11T22:10:25.647Z,67.20
2019-02-11T22:12:55.074Z,69.07
2019-02-11T22:15:24.752Z,70.37
2019-02-11T22:17:54.301Z,72.83
2019-02-11T22:20:24.177Z,72.33
2019-02-11T22:22:53.775Z,64.10
2019-02-11T22:25:23.183Z,61.10
2019-02-11T22:27:52.672Z,61.33
2019-02-11T22:30:22.303Z,62.23
2019-02-11T22:32:51.991Z,60.47
2019-02-11T22:35:21.396Z,69.00
2019-02-11T22:37:51.212Z,70.87
2019-02-11T22:40:20.617Z,72.23
2019-02-11T22:42:50.250Z,73.60
2019-02-11T22:45:21.195Z,72.43
2019-02-11T22:47:50.753Z,68.57
2019-02-11T22:50:20.168Z,70.60
2019-02-11T22:52:49.656Z,68.90
2019-02-11T22:55:19.392Z,63.57
2019-02-11T22:57:49.070Z,69.30
2019-02-11T23:00:44.284Z,54.23
2019-02-11T23:03:14.318Z,71.37
2019-02-11T23:05:44.253Z,73.93
2019-02-11T23:08:13.809Z,81.70
2019-02-11T23:10:43.933Z,91.07
2019-02-11T23:13:13.877Z,101.23
2019-02-11T23:15:43.644Z,102.73
2019-02-11T23:18:13.063Z,100.17
2019-02-11T23:20:42.732Z,100.87
2019-02-11T23:23:12.285Z,107.37
2019-02-11T23:25:41.921Z,108.67
2019-02-11T23:28:11.532Z,104.17
2019-02-11T23:30:41.312Z,106.37
2019-02-11T23:33:10.917Z,101.50
2019-02-11T23:35:40.640Z,97.87
2019-02-11T23:38:10.279Z,104.40
2019-02-11T23:40:40.146Z,99.60
2019-02-11T23:43:09.539Z,106.63
2019-02-11T23:45:39.426Z,104.67
2019-02-11T23:48:09.019Z,108.50
2019-02-11T23:50:38.718Z,109.53
2019-02-11T23:53:08.125Z,109.30
2019-02-11T23:55:37.695Z,105.07
2019-02-11T23:58:07.412Z,104.53
